Latest Weather Observations for Falls Creek

IDV60801

Issued at 3:32 pm EST Tuesday 1 September 2015 (issued every 30 minutes, with the page automatically refreshed every 10 minutes)

About weather observations | Map of weather stations | Latest weather observations for VIC | Other Formats
Station Details ID: 083084 Name: FALLS CREEK Lat: -36.87 Lon: 147.28 Height: 1765.0 m
Data from the previous 72 hours. | See also: Recent months at Falls Creek
Date/Time
EST
Temp
°C
App
Temp
°C
Dew
Point
Rel
Hum
%
Delta-T
°C
Wind Press
QNH
hPa
Press
MSL
hPa
Rain
since 9 am
mm
Dir
 
Spd
km/h
Gust
km/h
Spd
kts
Gust
kts
01/03:30pm 4.0 0.1 1.4 83 1.1 WNW 11 17 6 9 1013.7 1013.9 0.0
01/03:00pm 4.1 0.6 1.0 80 1.4 W 9 11 5 6 1013.9 1014.2 0.0
01/02:30pm 4.7 1.1 0.7 75 1.7 W 9 11 5 6 1013.9 1014.2 0.0
01/02:00pm 4.3 0.7 0.3 75 1.7 WNW 9 13 5 7 1013.9 1014.2 0.0
01/01:30pm 3.2 -0.5 0.1 80 1.3 WNW 9 15 5 8 1014.0 1014.3 0.0
01/01:00pm 2.9 -1.8 -1.5 73 1.8 W 13 17 7 9 1014.2 1014.4 0.0
01/12:30pm 3.0 -0.9 -1.4 73 1.8 W 9 15 5 8 1014.4 1014.7 0.0
01/12:00pm 2.9 -0.8 -0.2 80 1.3 WNW 9 11 5 6 1014.8 1015.0 0.0
01/11:30am 2.5 -1.7 -0.6 80 1.3 WNW 11 15 6 8 1015.0 1015.3 0.0
01/11:00am 3.3 -0.4 -3.1 63 2.5 W 7 11 4 6 1015.0 1015.3 0.0
01/10:30am 2.5 -2.1 -4.5 60 2.8 W 11 13 6 7 1014.6 1014.9 0.0
01/10:00am 2.0 -4.5 -14.1 29 4.8 SW 17 20 9 11 1014.6 1014.9 0.0
01/09:30am 1.8 -4.4 -13.9 30 4.7 WSW 15 20 8 11 1014.5 1016.7 0.0
01/09:00am 1.5 -5.2 -17.3 23 5.1 SW 17 20 9 11 1014.4 1016.6 0.0
01/08:30am 0.1 -6.6 -17.1 26 4.5 SW 17 19 9 10 1014.2 1016.3 0.0
01/08:00am -0.7 -7.4 -17.3 27 4.2 SSW 17 19 9 10 1014.0 1016.2 0.0
01/07:30am -0.7 -7.4 -17.3 27 4.2 SSW 17 19 9 10 1013.9 1016.1 0.0
01/07:00am -0.4 -6.8 -18.0 25 4.5 SW 15 19 8 10 1013.9 1016.1 0.0
01/06:30am -0.8 -8.4 -16.6 29 4.1 SW 22 26 12 14 1013.5 1015.6 0.0
01/06:00am 0.0 -7.6 -15.9 29 4.3 SW 22 28 12 15 1013.5 1015.6 0.0
01/05:30am 0.0 -7.6 -15.1 31 4.2 SW 22 26 12 14 1013.3 1015.4 0.0
01/05:00am -0.4 -8.5 -11.7 42 3.4 WSW 26 32 14 17 1013.1 1015.2 0.0
01/04:56am -0.7 -9.2 -11.1 45 3.1 WSW 28 32 15 17 1013.1 1015.2 0.0
01/04:30am -2.3 -6.1 -5.8 77 1.1 NNW 6 13 3 7 1013.5 1015.6 0.0
01/04:00am -2.9 -8.3 -4.9 86 0.6 W 15 19 8 10 1013.5 1015.6 0.0
01/03:30am -2.1 -9.5 -3.7 89 0.5 W 26 30 14 16 1013.5 1015.6 0.0
01/03:00am -2.3 -8.6 -3.7 90 0.4 W 20 26 11 14 1013.7 1015.8 0.0
01/02:30am -2.5 -9.3 -4.8 84 0.7 W 22 26 12 14 1013.8 1015.9 0.0
01/02:00am -2.1 -8.5 -4.7 82 0.8 W 20 26 11 14 1014.0 1016.2 0.0
01/01:30am -2.3 -8.4 -4.0 88 0.5 W 19 24 10 13 1014.4 1016.6 0.0
01/01:00am -2.0 -7.7 -3.6 89 0.5 WNW 17 22 9 12 1014.5 1016.7 0.0
01/12:30am -2.3 -7.1 -2.8 96 0.1 WNW 13 17 7 9 1014.6 1016.8 0.0
01/12:00am -2.1 -6.1 -2.2 99 -0.1 NW 9 15 5 8 1014.9 1017.1 0.0
 
Date/Time
EST
Temp
°C
App
Temp
°C
Dew
Point
Rel
Hum
%
Delta-T
°C
Wind Press
QNH
hPa
Press
MSL
hPa
Rain
since 9 am
mm
Dir
 
Spd
km/h
Gust
km/h
Spd
kts
Gust
kts
31/11:30pm -1.9 -5.5 -2.0 99 -0.1 NNW 7 11 4 6 1015.0 1017.2 0.0
31/11:00pm -2.0 -6.4 -2.1 99 -0.1 WNW 11 13 6 7 1015.1 1017.3 0.0
31/10:30pm -1.9 -5.9 -1.9 100 0.0 WNW 9 11 5 6 1015.2 1017.4 0.0
31/10:00pm -1.6 -5.5 -1.7 99 0.0 NW 9 15 5 8 1015.4 1017.5 0.0
31/09:30pm -1.5 -5.4 -1.5 100 0.0 WNW 9 13 5 7 1015.4 1017.5 0.0
31/09:00pm -1.2 -4.5 -1.3 99 0.0 W 6 7 3 4 1015.4 1017.5 0.0
31/08:30pm -0.7 -4.1 -0.8 99 0.0 WSW 7 9 4 5 1015.4 1017.5 0.0
31/08:00pm -0.6 -3.8 -0.6 100 0.0 SW 6 7 3 4 1015.5 1017.7 0.0
31/07:30pm -0.7 -4.1 -0.7 100 0.0 SW 7 9 4 5 1015.4 1017.5 0.0
31/07:00pm -0.6 -3.4 -0.6 100 0.0 SSW 4 7 2 4 1015.2 1017.4 0.0
31/06:30pm 0.3 -2.1 -0.1 97 0.2 WSW 2 4 1 2 1015.1 1017.3 0.0
31/06:00pm 0.3 -2.8 -0.1 97 0.2 SSE 6 7 3 4 1015.2 1017.4 0.0
31/05:30pm 0.9 -2.3 -0.7 89 0.6 SSE 6 9 3 5 1015.1 1017.3 0.0
31/05:00pm 1.8 -1.5 -1.1 81 1.2 SE 6 9 3 5 1015.0 1017.2 0.0
31/04:30pm 3.4 0.6 -0.2 77 1.5 WNW 4 7 2 4 1014.9 1017.1 0.0
31/04:00pm 3.0 -0.2 -0.5 78 1.5 WNW 6 7 3 4 1014.9 1017.1 0.0
31/03:30pm 3.9 0.5 -0.5 73 1.8 NW 7 11 4 6 1015.0 1017.2 0.0
31/03:00pm 3.6 -0.2 -0.6 74 1.8 NNW 9 13 5 7 1015.0 1017.2 0.0
31/02:30pm 3.6 -0.2 -0.6 74 1.7 NW 9 15 5 8 1015.1 1017.3 0.0
31/02:00pm 3.4 -0.4 -0.8 74 1.7 WNW 9 15 5 8 1015.2 1017.4 0.0
31/01:30pm 3.4 -0.1 -1.3 71 1.9 WNW 7 15 4 8 1015.4 1017.5 0.0
31/01:00pm 3.4 0.0 -1.9 68 2.1 W 6 11 3 6 1015.6 1017.8 0.0
31/12:30pm 3.0 -0.7 -2.5 67 2.2 W 7 9 4 5 1015.7 1017.9 0.0
31/12:00pm 3.6 0.1 -2.8 63 2.5 WNW 6 9 3 5 1016.1 1018.3 0.0
31/11:30am 2.5 -1.4 -10.7 37 4.3 SSW 4 6 2 3 1016.2 1018.4 0.0
31/11:00am 2.5 -1.0 -11.0 36 4.4 S 2 6 1 3 1016.3 1018.5 0.0
31/10:30am 2.6 -1.3 -11.3 35 4.5 SSW 4 11 2 6 1016.4 1018.7 0.0
31/10:00am 3.4 0.1 -13.3 28 5.2 CALM 0 4 0 2 1016.4 1018.7 0.0
31/09:30am 1.6 -1.7 -13.3 32 4.5 CALM 0 0 0 0 1016.5 1018.8 0.0
31/09:00am 1.5 -2.0 -16.8 24 5.0 CALM 0 4 0 2 1016.4 1018.7 0.0
31/08:30am 0.0 -3.5 -17.6 25 4.5 CALM 0 2 0 1 1016.3 1018.5 0.0
31/08:00am -1.4 -6.6 -16.7 30 3.9 SSW 9 9 5 5 1016.2 1018.4 0.0
31/07:30am -2.0 -7.8 -15.0 36 3.4 SSW 13 17 7 9 1015.9 1018.2 0.0
31/07:00am -2.1 -7.9 -14.8 37 3.3 SSW 13 17 7 9 1015.7 1017.9 0.0
31/06:30am -1.8 -7.6 -14.2 38 3.3 SSW 13 15 7 8 1015.7 1017.9 0.0
31/06:00am -1.3 -7.4 -12.8 41 3.3 SW 15 19 8 10 1015.7 1017.9 0.0
31/05:30am -2.2 -8.1 -10.2 54 2.3 SW 15 19 8 10 1015.8 1018.0 0.0
31/05:00am -2.3 -8.9 -9.2 59 2.1 WSW 19 20 10 11 1015.8 1018.0 0.0
31/04:30am -2.3 -6.6 -8.4 63 1.8 WSW 7 13 4 7 1015.9 1018.2 0.0
31/04:00am -2.2 -6.9 -9.5 57 2.2 W 9 11 5 6 1015.9 1018.2 0.0
31/03:30am -1.9 -7.0 -9.5 56 2.3 WNW 11 15 6 8 1016.1 1018.3 0.0
31/03:00am -1.5 -6.2 -9.6 54 2.5 WNW 9 11 5 6 1016.3 1018.5 0.0
31/02:30am -1.4 -5.7 -9.2 55 2.4 W 7 9 4 5 1016.5 1018.8 0.0
31/02:00am -1.5 -6.3 -10.3 51 2.6 W 9 11 5 6 1017.0 1019.3 0.0
31/01:30am -2.4 -6.7 -11.1 51 2.5 WSW 6 7 3 4 1017.4 1019.7 0.0
31/01:00am -2.8 -6.7 -10.6 55 2.2 SW 4 6 2 3 1017.5 1019.8 0.0
31/12:30am -3.2 -7.3 -8.6 66 1.6 SSW 6 7 3 4 1017.7 1020.0 0.0
31/12:00am -3.7 -8.6 -7.5 75 1.1 S 11 15 6 8 1017.9 1020.2 0.0
 
Date/Time
EST
Temp
°C
App
Temp
°C
Dew
Point
Rel
Hum
%
Delta-T
°C
Wind Press
QNH
hPa
Press
MSL
hPa
Rain
since 9 am
mm
Dir
 
Spd
km/h
Gust
km/h
Spd
kts
Gust
kts
30/11:30pm -4.9 -10.7 -5.0 99 -0.2 S 17 20 9 11 1018.0 1020.3 0.0
30/11:00pm -4.4 -10.2 -4.5 99 -0.2 SSW 17 20 9 11 1018.3 1020.7 0.0
30/10:30pm -4.3 -11.0 -4.3 100 0.0 SSW 22 24 12 13 1018.6 1020.9 0.0
30/10:00pm -3.1 -10.2 -4.8 88 0.5 S 24 28 13 15 1018.7 1021.0 0.0
30/09:30pm -2.8 -9.6 -5.3 83 0.7 S 22 37 12 20 1018.7 1021.0 0.0
30/09:00pm -3.3 -10.3 -3.4 99 -0.1 S 24 28 13 15 1018.7 1021.0 0.0
30/08:30pm -2.9 -10.2 -3.0 99 -0.1 S 26 32 14 17 1018.7 1021.0 0.0
30/08:00pm -2.8 -8.8 -2.9 99 -0.1 SSE 19 24 10 13 1018.7 1021.0 0.0
30/07:30pm -2.5 -8.1 -2.5 100 0.0 S 17 19 9 10 1018.7 1021.0 0.0
30/07:00pm -2.3 -7.1 -2.3 100 0.0 S 13 17 7 9 1018.7 1021.0 0.0
30/06:30pm -1.9 -5.9 -2.0 99 -0.1 S 9 11 5 6 1018.8 1021.1 0.0
30/06:00pm -1.6 -6.3 -1.6 100 0.0 S 13 13 7 7 1018.7 1021.0 0.0
30/05:30pm -0.8 -4.6 -0.9 99 0.0 SE 9 11 5 6 1018.7 1021.0 0.0
30/05:00pm 0.0 -3.8 -0.6 96 0.2 SE 9 13 5 7 1018.6 1020.9 0.0
30/04:30pm 0.7 -2.7 -0.3 93 0.4 SE 7 9 4 5 1018.6 1020.9 0.0
30/04:00pm 1.1 -2.0 0.1 93 0.4 SE 6 9 3 5 1018.7 1021.0 0.0
30/03:30pm 0.9 -3.3 -0.7 89 0.6 S 11 15 6 8 1018.7 1021.0 0.0
30/03:00pm 0.6 -4.0 -0.7 91 0.5 SSW 13 17 7 9 1018.8 1021.1 0.0
30/02:30pm 0.4 -4.9 -0.4 94 0.3 SSW 17 19 9 10 1018.9 1021.3 0.0
30/02:00pm 0.1 -4.0 -0.2 98 0.1 SSW 11 15 6 8 1019.0 1021.4 0.0
30/01:30pm -0.5 -4.3 -0.6 99 0.0 SSW 9 11 5 6 1019.0 1021.4 0.0
30/01:00pm -0.9 -6.2 -0.9 100 0.0 S 17 20 9 11 1019.2 1021.5 0.0
30/12:30pm -1.4 -6.8 -1.4 100 0.0 S 17 20 9 11 1019.3 1021.6 0.0
30/12:00pm -1.3 -5.9 -1.3 100 0.0 S 13 19 7 10 1019.4 1021.8 0.0
30/11:30am -1.7 -7.1 -1.7 100 0.0 SSE 17 24 9 13 1019.6 1022.0 0.0
30/11:00am -2.1 -8.2 -2.1 100 0.0 SSE 20 30 11 16 1019.8 1022.1 0.0
30/10:30am -2.3 -8.4 -2.3 100 0.0 SSE 20 28 11 15 1019.6 1022.0 0.0
30/10:00am -2.4 -8.9 -2.4 100 0.0 SSE 22 33 12 18 1019.4 1021.8 0.0
30/09:30am -2.5 -8.6 -2.5 100 0.0 SSE 20 32 11 17 1019.2 1021.5 0.0
30/09:00am -2.7 -9.6 -2.7 100 0.0 SSE 24 37 13 20 1019.0 1021.4 0.0
30/08:30am -2.6 -10.6 -2.6 100 0.0 SSE 30 39 16 21 1018.8 1021.1 0.0
30/08:00am -2.5 -10.9 -2.5 100 0.0 S 32 41 17 22 1018.7 1021.0 0.0
30/07:30am -2.8 -13.5 -2.8 100 0.0 S 44 52 24 28 1017.7 1020.0 0.0
30/07:00am -2.6 -13.1 -2.6 100 0.0 S 43 52 23 28 1017.7 1020.0 0.0
30/06:30am -2.5 -13.0 -2.5 100 0.0 S 43 50 23 27 1017.4 1019.7 0.0
30/06:00am -2.9 -13.1 -2.9 100 0.0 S 41 48 22 26 1017.5 1019.8 0.0
30/05:30am -3.2 -13.8 -3.3 99 -0.1 S 43 52 23 28 1017.3 1019.5 0.0
30/05:00am -3.5 -12.6 -3.6 99 -0.1 S 35 43 19 23 1017.4 1019.7 0.0
30/04:30am -3.0 -11.1 -3.0 100 0.0 S 30 44 16 24 1017.4 1019.7 0.0
30/04:00am -2.8 -10.1 -2.8 100 0.0 SSE 26 41 14 22 1017.7 1020.0 0.0
30/03:50am -2.9 -10.6 -2.9 100 0.0 SSE 28 46 15 25 1017.6 1019.9 0.0
30/03:30am -2.9 -9.5 -2.9 100 0.0 SSE 22 33 12 18 1017.7 1020.0 0.0
30/03:00am -2.8 -9.0 -2.8 100 0.0 SSE 20 33 11 18 1018.2 1020.5 0.0
30/02:30am -2.9 -9.8 -2.9 100 0.0 SSE 24 39 13 21 1018.1 1020.4 0.0
30/02:00am -3.0 -11.1 -3.0 100 0.0 S 30 41 16 22 1018.3 1020.7 0.0
30/01:30am -2.9 -11.9 -2.9 100 0.0 S 35 46 19 25 1018.4 1020.8 0.0
30/01:00am -3.0 -13.2 -3.0 100 0.0 S 41 50 22 27 1018.3 1020.7 0.0
30/12:30am -2.8 -11.4 -2.8 100 0.0 S 33 41 18 22 1018.9 1021.3 0.0
30/12:00am -2.9 -13.4 -2.9 100 0.0 S 43 59 23 32 1018.0 1020.3 0.0
 
Date/Time
EST
Temp
°C
App
Temp
°C
Dew
Point
Rel
Hum
%
Delta-T
°C
Wind Press
QNH
hPa
Press
MSL
hPa
Rain
since 9 am
mm
Dir
 
Spd
km/h
Gust
km/h
Spd
kts
Gust
kts
29/11:30pm -2.5 -11.9 -2.5 100 0.0 S 37 44 20 24 1018.7 1021.0 0.0
29/11:00pm -2.5 -13.0 -2.5 100 0.0 S 43 52 23 28 1018.4 1020.8 0.0
29/10:30pm -2.3 -12.0 -2.3 100 0.0 S 39 46 21 25 1018.8 1021.1 0.0
29/10:00pm -2.3 -11.2 -2.3 100 0.0 S 35 43 19 23 1019.2 1021.5 0.0
29/09:30pm -1.9 -9.1 -1.9 100 0.0 S 26 33 14 18 1019.4 1021.8 0.0
29/09:00pm -1.7 -8.5 -1.7 100 0.0 S 24 32 13 17 1019.5 1021.9 0.0
29/08:30pm -1.6 -7.0 -1.6 100 0.0 SSW 17 22 9 12 1019.9 1022.3 0.0
29/08:00pm -1.6 -8.0 -1.6 100 0.0 SSW 22 26 12 14 1019.9 1022.3 0.0
29/07:30pm -1.7 -7.5 -1.7 100 0.0 SSW 19 26 10 14 1019.9 1022.3 0.0
29/07:00pm -1.9 -7.8 -2.0 99 -0.1 SSW 19 22 10 12 1019.6 1022.0 0.0
29/06:30pm -1.9 -7.8 -2.0 99 -0.1 SSW 19 22 10 12 1019.8 1022.1 0.0
29/06:00pm -1.8 -7.8 -1.9 99 -0.1 SSW 20 24 11 13 1019.4 1021.8 0.0
29/05:30pm -1.4 -5.7 -1.4 100 0.0 SSW 11 17 6 9 1019.4 1021.8 0.0
29/05:00pm -1.0 -6.0 -1.4 97 0.1 SSW 15 17 8 9 1019.3 1021.6 0.0
29/04:30pm -0.9 -6.7 -1.6 95 0.2 SSW 19 22 10 12 1019.2 1021.5 0.0
29/04:00pm -0.6 -6.0 -1.6 93 0.4 SSW 17 19 9 10 1019.0 1021.4 0.0

Other Formats:

Comma delimited format used in spreadsheet applications
http://www.bom.gov.au/fwo/IDV60801/IDV60801.94903.axf

JavaScript Object Notation format (JSON) in row-major order
http://www.bom.gov.au/fwo/IDV60801/IDV60801.94903.json